Local Weather Ingen bokad jour idag Saturday 10th of April
Flygplats METAR TAF
Airport METAR TAF
ESSL - Linköping101950Z AUTO 25006KT 9999 NCD 05/M04 Q1014=NO VALID TAF PUBLISHED
ESCF - Malmen101950Z AUTO 24009KT 9999 NCD 04/M04 Q1014=NO VALID TAF PUBLISHED
ESSP - Norrköping101950Z AUTO 24007KT 9999 NCD 05/M05 Q1013=NO VALID TAF PUBLISHED
ESGJ - Jönköping101950Z AUTO 23004KT 9999 NCD 01/M03 Q1014=NO VALID TAF PUBLISHED
ESKN - Skavsta101950Z 26007KT CAVOK 03/M05 Q1013=101730Z 1018/1118 25012KT CAVOK BECMG 1116/1118 09010KT 2000 RASN BKN005=
ESSV - Visby101950Z AUTO 20010KT 9999 NCD 03/00 Q1015=101430Z 1015/1017 22017KT CAVOK=
ESGG - Göteborg101950Z 21005KT CAVOK M01/M03 Q1015 RWY 21 CLEAR AND DRY 51-100 PCT BA GOOD=101730Z 1018/1118 24012KT 9999 SCT025 BECMG 1020/1022 18004KT BECMG 1110/1112 2500 -RA TEMPO 1112/1118 6000 SN BKN012=
FLEET STATUS
Flygplan Tid till service Tid till flygstopp Flygtid Landningar
Aircraft To service To stop Total time Landings
SE-IUD26.5 h31.5 h12 223.5 h24 934 st.
SE-KIT31.5 h36.5 h12 418.5 h24 361 st.
(1) DME u/s
SE-KMH21.9 h26.9 h16 428.1 h61 289 st.
SE-LRL43.8 h48.8 h1 156.2 h2 248 st.
SE-MEB22.8 h32.8 h1 677.2 h5 169 st.
(1) CDU 1 fan fail
(2) Högt fläktljud när G500 startar upp. Tappar ofta GPS låsning i sväng.
(3) Färg på undersidan och bakom motårkåpa börjat släppa
SE-MEKN/AN/A3 679.0 h3 527 st.
(1) Glappkontakt radio och interkom vänster sida.
PPR
Ankomst Avgång Flygplan Namn Bränsle
Arrival Departure Aircraft Name Fuel
NOTAM
>>> ESSL/LINKOPING/SAAB <<<
+ INFORMATION REGARDING PPR HOSP AND SAR FLIGHTS OUTSIDE HR OF AD ADMINISTRATION CONTACT JRCC FROM: 06 APR 2021 06:34 TO: 31 MAY 2021 07:00 EST
+ AERODROME CONTROL TOWER (TWR) HOURS OF SERVICE ARE NOW MON CLSD, TUE-FRI 0515-1500, SAT-SUN CLSD FROM: 05 APR 2021 00:00 TO: 11 APR 2021 23:59
+ OSTGOTA APPROACH CONTROL SERVICE (APP) HOURS OF SERVICE CHANGED TO MON-SUN 0430-2100. SERVICE PROVIDED ACCORDING TO ES AIP ENR 2.1 FROM: 28 MAR 2021 03:55 TO: 16 JUN 2021 21:50
+ AERODROME OPERATING MINIMA CHANGED TO RVR 750M RWY29 FROM: 17 MAR 2021 11:00 TO: 17 JUN 2021 11:00 EST
+ APCH LIGHTING SYSTEM RWY29 COMPLETELY WITHDRAWN REPLACED WITH SIMPLE APCH LIGHTING SYTEM 420M. FROM: 17 MAR 2021 11:00 TO: 17 JUN 2021 11:00 EST
+ IFR TRAINING AND SCHOOL FLIGHTS REQUIRE PPR FROM ATS FOR APCHS AND TGL. ATS TEL +46 (0)60646213 FROM: 26 FEB 2021 10:06 TO: 26 MAY 2021 11:00 EST
+ AERODROME CAUTION WORK IN PROGRESS S OF RWY 11/29 W OF TWY I AND N OF RWY11/29 E OF TWY L. TRAFFIC NOT AFFECTED. FROM: 26 FEB 2021 10:16 TO: 26 MAY 2021 11:00 EST
>>> ESSP/NORRKOPING/KUNGSANGEN <<<
+ AERODROME CONTROL TOWER (TWR) HOURS OF SERVICE ARE NOW MON CLSD, TUE-THU 0600-1230, FRI 0600-1530, SAT-SUN CLSD FROM: 05 APR 2021 00:00 TO: 11 APR 2021 23:59
+ FUEL AVAILABILITY HOURS OF SERVICE ARE NOW MON CLSD, TUE-THU 0600-1130, FRI 0600-1430, SAT-SUN CLSD FROM: 05 APR 2021 00:00 TO: 11 APR 2021 23:59
+ OSTGOTA APPROACH CONTROL SERVICE (APP) HOURS OF SERVICE CHANGED TO MON-SUN 0430-2100. SERVICE PROVIDED ACCORDING TO ES AIP ENR 2.1 FROM: 28 MAR 2021 03:55 TO: 16 JUN 2021 21:50
+ ILS GP RWY 09 U/S FROM: 19 MAR 2021 12:10 TO: 31 MAY 2021 12:00 EST
+ RWY 11/29 CLSD FROM: 03 FEB 2021 17:39 TO: 03 MAY 2021 12:00 EST
+ OCA/OCH CHANGED FOR RNP LPV APCH RWY 09: CAT A 314FT(301FT), CAT B 326FT(313FT) CAT C 334FT(321FT) CAT D 345FT(332FT) DUE CRANES ERECTED IN APCH RWY 09 AREA 583505N 0161241E, 583502N 0161245E, 583501N 0161241E, 583503N 0161239E ELEV 184FT AMSL HGT 158FT AGL. FROM: 22 JAN 2021 00:00 TO: 23 APR 2021 23:59
+ OMNI DIRECTIONAL DEPARTURE RWY 27 TEMPO CHANGED, CLIMB STRAIGHT AHEAD WITH MNM 310FT/NM(5,1 PERCENT) TO MNM TURNING ALT 700FT. CONTINUE CLIMB TO APPROPRIATE MSA. FROM: 22 JAN 2021 00:00 TO: 23 APR 2021 23:59
>>> ESCF/LINKOPING/MALMEN <<<
+ OSTGOTA APPROACH CONTROL SERVICE (APP) HOURS OF SERVICE CHANGED TO MON-SUN 0430-2100. SERVICE PROVIDED ACCORDING TO ES AIP ENR 2.1 FROM: 28 MAR 2021 03:55 TO: 16 JUN 2021 21:50